Beloit, Kansas
Current Conditions -  °F | °C
As of 3:55 AM on Saturday 20 Dec 2014 (Local Time) from KCNK Reporting Station
Haze Haze  
Wind Chill: -7°   Ceiling: Unl
Heat Index: -1°   Visibility: 6mi
Dew Point: -1°   Wind: 14mph
Humidity: 100%   Direction: 210°SSW
Pressure: 30.07"   Gusts: NA
Location:  39.46°N, 98.11°W
Report Text: KCNK 200955Z AUTO 21012KT 6SM BR CLR M01/M01 A3007 RMK AO2 SLP194 T10111011 $
Loading
Personal Weather Stations






























Interactive Weather Map New forecast layout! Learn more

10-Day Weather Forecast

Advertisements
Track Severe Weather on mobile